Tie Siding, WY (82084)

1:19 PM MST on December 09, 2016 (GMT -0700)
| | Change Station
Active Advisory: Special Statement

Elev -9999 ft 0.00 °N, 0.00 °E | Updated 0 second ago

Partly Cloudy
Partly Cloudy
40 °F
Feels Like 36 °F
N
4
Wind Variable Wind from NNE
Gusts mph

Today
High -- | Low -- °F
--% Chance of Precip.
Yesterday
High -- | Low -- °F
Precip. -- in
Pressure 30.08 in
Visibility 10.0 miles
Clouds Mostly Cloudy 4500 ft
Windchill 36 °F
Dew Point 39 °F
Humidity 97%
Rainfall --
Snow Depth Not available.
7:15 AM 4:33 PM
Waxing Gibbous, 77% visible
METAR KLAR 091953Z AUTO 25018G24KT 10SM BKN045 02/M04 A3006 RMK AO2 SLP185 T00221044
Pressure 30.08 in
Visibility 10.0 miles
Clouds Mostly Cloudy 4500 ft
Windchill 36 °F
Dew Point 39 °F
Humidity 97%
Rainfall --
Snow Depth Not available.
7:15 AM 4:33 PM
Waxing Gibbous, 77% visible
METAR KLAR 091953Z AUTO 25018G24KT 10SM BKN045 02/M04 A3006 RMK AO2 SLP185 T00221044

10-Day Weather Forecast

Almanac

Astronomy

Dec. 09, 2016 Rise Set
Actual Time
Civil Twilight
Nautical Twilight
Astronomical Twilight
Moon
Length of Visible Light
Length of Day
Tomorrow will be .
, % of the Moon is Illuminated

Today's Extremes

State Highs State Lows

Community

WunderPhotos

Upload Photos

1,956,517 photos uploaded!

WunderBlog® & News

Nearby

Air Quality

  Air Quality AQ Index Pollutant
Not available.

Snow Depth

Station Depth Elevation

Earthquake Activity

City Distance Mag. Time & Date
Minimum magnitude displayed is 2.5.

Coastal Water Temperatures

Place Temperature

Stations

Nearby Weather Stations

Station Location Temp. Windchill Dew Point Humidity Wind Precip. Elev Updated Type
                   

Watches & Warnings

Special Statement
Issued: 1:02 PM MST Dec. 9, 2016 – National Weather Service

Southwest winds sustained at 25 to 40 mph with gusts to around 50
mph will prevail this afternoon. These strong winds will impact
travel along Interstate 80 from Buford to The Summit... and between
Laramie and Rawlins.

Motorists traveling with lightweight and high profile vehicles
should be alert for gusty Crosswinds in Interstate 80.


102 PM MST Fri Dec 9 2016

Southwest winds sustained at 25 to 40 mph with gusts to around 50
mph will prevail this afternoon. These strong winds will impact
travel along Interstate 80 from Buford to The Summit... and between
Laramie and Rawlins.

Motorists traveling with lightweight and high profile vehicles
should be alert for gusty Crosswinds in Interstate 80.



102 PM MST Fri Dec 9 2016

Southwest winds sustained at 25 to 40 mph with gusts to around 50
mph will prevail this afternoon. These strong winds will impact
travel along Interstate 80 from Buford to The Summit... and between
Laramie and Rawlins.

Motorists traveling with lightweight and high profile vehicles
should be alert for gusty Crosswinds in Interstate 80.